sensor_id;sensor_type;location;lat;lon;timestamp;temperature;humidity
66184;DHT22;52989;48.796;9.806;2023-03-04T00:02:00;-0.40;99.90
66184;DHT22;52989;48.796;9.806;2023-03-04T00:04:26;-0.60;99.90
66184;DHT22;52989;48.796;9.806;2023-03-04T00:06:51;-0.60;99.90
66184;DHT22;52989;48.796;9.806;2023-03-04T00:09:17;-0.60;99.90
66184;DHT22;52989;48.796;9.806;2023-03-04T00:11:42;-0.70;99.90
66184;DHT22;52989;48.796;9.806;2023-03-04T00:14:08;-0.50;99.90
66184;DHT22;52989;48.796;9.806;2023-03-04T00:16:33;-0.30;99.90
66184;DHT22;52989;48.796;9.806;2023-03-04T00:18:59;0.40;99.90
66184;DHT22;52989;48.796;9.806;2023-03-04T00:21:24;-0.10;99.90
66184;DHT22;52989;48.796;9.806;2023-03-04T00:23:50;-0.40;99.90
66184;DHT22;52989;48.796;9.806;2023-03-04T00:26:15;-0.20;99.90
66184;DHT22;52989;48.796;9.806;2023-03-04T00:28:41;-0.20;99.90
66184;DHT22;52989;48.796;9.806;2023-03-04T00:31:07;-0.10;99.90
66184;DHT22;52989;48.796;9.806;2023-03-04T00:33:33;-0.70;99.90
66184;DHT22;52989;48.796;9.806;2023-03-04T00:35:58;-0.90;99.90
66184;DHT22;52989;48.796;9.806;2023-03-04T00:38:24;-0.40;99.90
66184;DHT22;52989;48.796;9.806;2023-03-04T00:40:50;-0.70;99.90
66184;DHT22;52989;48.796;9.806;2023-03-04T00:43:15;-0.60;99.90
66184;DHT22;52989;48.796;9.806;2023-03-04T00:45:41;-0.60;99.90
66184;DHT22;52989;48.796;9.806;2023-03-04T00:48:06;-0.30;99.90
66184;DHT22;52989;48.796;9.806;2023-03-04T00:50:32;-0.20;99.90
66184;DHT22;52989;48.796;9.806;2023-03-04T00:52:57;-0.10;99.90
66184;DHT22;52989;48.796;9.806;2023-03-04T00:55:22;-0.60;99.90
66184;DHT22;52989;48.796;9.806;2023-03-04T00:57:48;-0.40;99.90
66184;DHT22;52989;48.796;9.806;2023-03-04T01:00:13;-0.70;99.90
66184;DHT22;52989;48.796;9.806;2023-03-04T01:02:39;-0.70;99.90
66184;DHT22;52989;48.796;9.806;2023-03-04T01:05:05;-0.90;99.90
66184;DHT22;52989;48.796;9.806;2023-03-04T01:07:31;-0.80;99.90
66184;DHT22;52989;48.796;9.806;2023-03-04T01:09:56;-0.80;99.90
66184;DHT22;52989;48.796;9.806;2023-03-04T01:12:22;-1.00;99.90
66184;DHT22;52989;48.796;9.806;2023-03-04T01:14:47;-1.00;99.90
66184;DHT22;52989;48.796;9.806;2023-03-04T01:17:13;-1.10;99.90
66184;DHT22;52989;48.796;9.806;2023-03-04T01:19:38;-1.10;99.90
66184;DHT22;52989;48.796;9.806;2023-03-04T01:22:04;-1.10;99.90
66184;DHT22;52989;48.796;9.806;2023-03-04T01:24:29;-1.30;99.90
66184;DHT22;52989;48.796;9.806;2023-03-04T01:26:55;-1.30;99.90
66184;DHT22;52989;48.796;9.806;2023-03-04T01:29:20;-1.00;99.90
66184;DHT22;52989;48.796;9.806;2023-03-04T01:31:46;-1.10;99.90
66184;DHT22;52989;48.796;9.806;2023-03-04T01:34:11;-1.00;99.90
66184;DHT22;52989;48.796;9.806;2023-03-04T01:36:37;-0.80;99.90
66184;DHT22;52989;48.796;9.806;2023-03-04T01:39:03;-1.20;99.90
66184;DHT22;52989;48.796;9.806;2023-03-04T01:41:29;-1.00;99.90
66184;DHT22;52989;48.796;9.806;2023-03-04T01:43:54;-1.30;99.90
66184;DHT22;52989;48.796;9.806;2023-03-04T01:46:20;-1.00;99.90
66184;DHT22;52989;48.796;9.806;2023-03-04T01:48:46;-0.80;99.90
66184;DHT22;52989;48.796;9.806;2023-03-04T01:51:13;-1.10;99.90
66184;DHT22;52989;48.796;9.806;2023-03-04T01:53:39;-0.80;99.90
66184;DHT22;52989;48.796;9.806;2023-03-04T01:56:11;-0.10;99.90
66184;DHT22;52989;48.796;9.806;2023-03-04T01:58:36;0.10;99.90
66184;DHT22;52989;48.796;9.806;2023-03-04T02:01:02;-0.50;99.90
66184;DHT22;52989;48.796;9.806;2023-03-04T02:03:27;-0.50;99.90
66184;DHT22;52989;48.796;9.806;2023-03-04T02:05:53;-0.80;99.90
66184;DHT22;52989;48.796;9.806;2023-03-04T02:08:20;-1.10;99.90
66184;DHT22;52989;48.796;9.806;2023-03-04T02:10:46;-0.70;99.90
66184;DHT22;52989;48.796;9.806;2023-03-04T02:13:12;-0.70;99.90
66184;DHT22;52989;48.796;9.806;2023-03-04T02:15:38;-0.70;99.90
66184;DHT22;52989;48.796;9.806;2023-03-04T02:18:18;-0.70;99.90
66184;DHT22;52989;48.796;9.806;2023-03-04T02:20:46;-1.00;99.90
66184;DHT22;52989;48.796;9.806;2023-03-04T02:23:29;-0.70;99.90
66184;DHT22;52989;48.796;9.806;2023-03-04T02:26:15;-0.40;99.90
66184;DHT22;52989;48.796;9.806;2023-03-04T02:28:41;-0.30;99.90
66184;DHT22;52989;48.796;9.806;2023-03-04T02:31:41;-0.50;99.90
66184;DHT22;52989;48.796;9.806;2023-03-04T02:34:00;-0.20;99.90
66184;DHT22;52989;48.796;9.806;2023-03-04T02:36:27;-0.70;99.90
66184;DHT22;52989;48.796;9.806;2023-03-04T02:38:54;-1.20;99.90
66184;DHT22;52989;48.796;9.806;2023-03-04T02:41:21;-1.40;99.90
66184;DHT22;52989;48.796;9.806;2023-03-04T02:43:50;-1.60;99.90
66184;DHT22;52989;48.796;9.806;2023-03-04T02:46:16;-1.40;99.90
66184;DHT22;52989;48.796;9.806;2023-03-04T02:48:41;-1.70;99.90
66184;DHT22;52989;48.796;9.806;2023-03-04T02:51:07;-1.80;99.90
66184;DHT22;52989;48.796;9.806;2023-03-04T02:53:32;-1.90;99.90
66184;DHT22;52989;48.796;9.806;2023-03-04T02:55:58;-1.80;99.90
66184;DHT22;52989;48.796;9.806;2023-03-04T02:58:23;-1.90;99.90
66184;DHT22;52989;48.796;9.806;2023-03-04T03:00:49;-2.00;99.90
66184;DHT22;52989;48.796;9.806;2023-03-04T03:03:14;-1.90;99.90
66184;DHT22;52989;48.796;9.806;2023-03-04T03:05:40;-1.90;99.90
66184;DHT22;52989;48.796;9.806;2023-03-04T03:08:05;-2.00;99.90
66184;DHT22;52989;48.796;9.806;2023-03-04T03:10:31;-2.00;99.90
66184;DHT22;52989;48.796;9.806;2023-03-04T03:12:56;-1.60;99.90
66184;DHT22;52989;48.796;9.806;2023-03-04T03:15:22;-1.50;99.90
66184;DHT22;52989;48.796;9.806;2023-03-04T03:17:47;-1.50;99.90
66184;DHT22;52989;48.796;9.806;2023-03-04T03:20:13;-1.70;99.90
66184;DHT22;52989;48.796;9.806;2023-03-04T03:22:39;-1.70;99.90
66184;DHT22;52989;48.796;9.806;2023-03-04T03:25:04;-1.90;99.90
66184;DHT22;52989;48.796;9.806;2023-03-04T03:27:30;-1.60;99.90
66184;DHT22;52989;48.796;9.806;2023-03-04T03:29:56;-1.90;99.90
66184;DHT22;52989;48.796;9.806;2023-03-04T03:32:21;-1.60;99.90
66184;DHT22;52989;48.796;9.806;2023-03-04T03:34:47;-1.20;99.90
66184;DHT22;52989;48.796;9.806;2023-03-04T03:37:12;-0.70;99.90
66184;DHT22;52989;48.796;9.806;2023-03-04T03:39:38;-0.60;99.90
66184;DHT22;52989;48.796;9.806;2023-03-04T03:42:03;-0.80;99.90
66184;DHT22;52989;48.796;9.806;2023-03-04T03:44:29;-0.90;99.90
66184;DHT22;52989;48.796;9.806;2023-03-04T03:46:54;-1.00;99.90
66184;DHT22;52989;48.796;9.806;2023-03-04T03:49:20;-1.50;99.90
66184;DHT22;52989;48.796;9.806;2023-03-04T03:51:45;-1.60;99.90
66184;DHT22;52989;48.796;9.806;2023-03-04T03:54:11;-1.70;99.90
66184;DHT22;52989;48.796;9.806;2023-03-04T03:56:37;-2.00;99.90
66184;DHT22;52989;48.796;9.806;2023-03-04T03:59:02;-1.90;99.90
66184;DHT22;52989;48.796;9.806;2023-03-04T04:01:28;-2.10;99.90
66184;DHT22;52989;48.796;9.806;2023-03-04T04:03:53;-2.20;99.90
66184;DHT22;52989;48.796;9.806;2023-03-04T04:06:19;-1.90;99.90
66184;DHT22;52989;48.796;9.806;2023-03-04T04:08:44;-1.50;99.90
66184;DHT22;52989;48.796;9.806;2023-03-04T04:11:10;-2.10;99.90
66184;DHT22;52989;48.796;9.806;2023-03-04T04:13:36;-2.20;99.90
66184;DHT22;52989;48.796;9.806;2023-03-04T04:16:01;-2.10;99.90
66184;DHT22;52989;48.796;9.806;2023-03-04T04:18:27;-2.00;99.90
66184;DHT22;52989;48.796;9.806;2023-03-04T04:20:52;-1.60;99.90
66184;DHT22;52989;48.796;9.806;2023-03-04T04:23:18;-1.40;99.90
66184;DHT22;52989;48.796;9.806;2023-03-04T04:25:43;-1.60;99.90
66184;DHT22;52989;48.796;9.806;2023-03-04T04:28:09;-1.80;99.90
66184;DHT22;52989;48.796;9.806;2023-03-04T04:30:34;-1.80;99.90
66184;DHT22;52989;48.796;9.806;2023-03-04T04:33:00;-2.30;99.90
66184;DHT22;52989;48.796;9.806;2023-03-04T04:35:26;-2.50;99.90
66184;DHT22;52989;48.796;9.806;2023-03-04T04:37:52;-2.20;99.90
66184;DHT22;52989;48.796;9.806;2023-03-04T04:40:17;-2.00;99.90
66184;DHT22;52989;48.796;9.806;2023-03-04T04:42:43;-2.30;99.90
66184;DHT22;52989;48.796;9.806;2023-03-04T04:45:08;-2.40;99.90
66184;DHT22;52989;48.796;9.806;2023-03-04T04:47:34;-2.40;99.90
66184;DHT22;52989;48.796;9.806;2023-03-04T04:49:59;-2.00;99.90
66184;DHT22;52989;48.796;9.806;2023-03-04T04:52:25;-2.30;99.90
66184;DHT22;52989;48.796;9.806;2023-03-04T04:54:50;-2.50;99.90
66184;DHT22;52989;48.796;9.806;2023-03-04T04:57:16;-2.30;99.90
66184;DHT22;52989;48.796;9.806;2023-03-04T04:59:41;-2.40;99.90
66184;DHT22;52989;48.796;9.806;2023-03-04T05:02:07;-2.80;99.90
66184;DHT22;52989;48.796;9.806;2023-03-04T05:04:32;-2.70;99.90
66184;DHT22;52989;48.796;9.806;2023-03-04T05:06:58;-2.80;99.90
66184;DHT22;52989;48.796;9.806;2023-03-04T05:09:23;-2.40;99.90
66184;DHT22;52989;48.796;9.806;2023-03-04T05:11:49;-2.50;99.90
66184;DHT22;52989;48.796;9.806;2023-03-04T05:14:14;-2.70;99.90
66184;DHT22;52989;48.796;9.806;2023-03-04T05:16:40;-2.80;99.90
66184;DHT22;52989;48.796;9.806;2023-03-04T05:19:05;-2.70;99.90
66184;DHT22;52989;48.796;9.806;2023-03-04T05:21:31;-1.90;99.90
66184;DHT22;52989;48.796;9.806;2023-03-04T05:23:56;-1.30;99.90
66184;DHT22;52989;48.796;9.806;2023-03-04T05:26:22;-1.10;99.90
66184;DHT22;52989;48.796;9.806;2023-03-04T05:28:47;-1.40;99.90
66184;DHT22;52989;48.796;9.806;2023-03-04T05:31:13;-2.20;99.90
66184;DHT22;52989;48.796;9.806;2023-03-04T05:33:38;-2.30;99.90
66184;DHT22;52989;48.796;9.806;2023-03-04T05:36:04;-2.50;99.90
66184;DHT22;52989;48.796;9.806;2023-03-04T05:38:29;-2.50;99.90
66184;DHT22;52989;48.796;9.806;2023-03-04T05:40:56;-1.80;99.90
66184;DHT22;52989;48.796;9.806;2023-03-04T05:43:22;-1.90;99.90
66184;DHT22;52989;48.796;9.806;2023-03-04T05:45:48;-2.10;99.90
66184;DHT22;52989;48.796;9.806;2023-03-04T05:48:14;-2.10;99.90
66184;DHT22;52989;48.796;9.806;2023-03-04T05:50:39;-1.70;99.90
66184;DHT22;52989;48.796;9.806;2023-03-04T05:53:04;-1.30;99.90
66184;DHT22;52989;48.796;9.806;2023-03-04T05:55:30;-1.20;99.90
66184;DHT22;52989;48.796;9.806;2023-03-04T05:57:56;-1.50;99.90
66184;DHT22;52989;48.796;9.806;2023-03-04T06:00:21;-2.20;99.90
66184;DHT22;52989;48.796;9.806;2023-03-04T06:02:47;-2.40;99.90
66184;DHT22;52989;48.796;9.806;2023-03-04T06:05:12;-2.70;99.90
66184;DHT22;52989;48.796;9.806;2023-03-04T06:07:38;-2.50;99.90
66184;DHT22;52989;48.796;9.806;2023-03-04T06:10:04;-1.90;99.90
66184;DHT22;52989;48.796;9.806;2023-03-04T06:12:30;-1.70;99.90
66184;DHT22;52989;48.796;9.806;2023-03-04T06:14:56;-1.40;99.90
66184;DHT22;52989;48.796;9.806;2023-03-04T06:17:21;-1.10;99.90
66184;DHT22;52989;48.796;9.806;2023-03-04T06:19:46;-1.50;99.90
66184;DHT22;52989;48.796;9.806;2023-03-04T06:22:12;-1.30;99.90
66184;DHT22;52989;48.796;9.806;2023-03-04T06:24:38;-1.60;99.90
66184;DHT22;52989;48.796;9.806;2023-03-04T06:27:03;-1.40;99.90
66184;DHT22;52989;48.796;9.806;2023-03-04T06:29:29;-0.50;99.90
66184;DHT22;52989;48.796;9.806;2023-03-04T06:31:54;-0.30;99.90
66184;DHT22;52989;48.796;9.806;2023-03-04T06:34:19;-0.80;99.90
66184;DHT22;52989;48.796;9.806;2023-03-04T06:36:45;-0.80;99.90
66184;DHT22;52989;48.796;9.806;2023-03-04T06:39:11;-1.30;99.90
66184;DHT22;52989;48.796;9.806;2023-03-04T06:41:36;-1.20;99.90
66184;DHT22;52989;48.796;9.806;2023-03-04T06:44:02;-0.60;99.90
66184;DHT22;52989;48.796;9.806;2023-03-04T06:46:28;0.20;99.90
66184;DHT22;52989;48.796;9.806;2023-03-04T06:48:53;0.20;99.90
66184;DHT22;52989;48.796;9.806;2023-03-04T06:51:19;0.70;99.90
66184;DHT22;52989;48.796;9.806;2023-03-04T06:53:46;0.60;99.90
66184;DHT22;52989;48.796;9.806;2023-03-04T06:56:12;0.30;99.90
66184;DHT22;52989;48.796;9.806;2023-03-04T06:58:37;-0.10;99.90
66184;DHT22;52989;48.796;9.806;2023-03-04T07:03:34;0.00;99.90
66184;DHT22;52989;48.796;9.806;2023-03-04T07:06:00;0.40;99.90
66184;DHT22;52989;48.796;9.806;2023-03-04T07:08:25;0.40;99.90
66184;DHT22;52989;48.796;9.806;2023-03-04T07:10:51;0.80;99.90
66184;DHT22;52989;48.796;9.806;2023-03-04T07:13:16;0.10;99.90
66184;DHT22;52989;48.796;9.806;2023-03-04T07:15:42;0.00;99.90
66184;DHT22;52989;48.796;9.806;2023-03-04T07:18:07;-0.50;99.90
66184;DHT22;52989;48.796;9.806;2023-03-04T07:20:33;-0.60;99.90
66184;DHT22;52989;48.796;9.806;2023-03-04T07:22:58;-0.60;99.90
66184;DHT22;52989;48.796;9.806;2023-03-04T07:25:24;-0.70;99.90
66184;DHT22;52989;48.796;9.806;2023-03-04T07:27:49;0.20;99.90
66184;DHT22;52989;48.796;9.806;2023-03-04T07:30:15;-0.10;99.90
66184;DHT22;52989;48.796;9.806;2023-03-04T07:32:40;0.40;99.90
66184;DHT22;52989;48.796;9.806;2023-03-04T07:35:06;0.60;99.90
66184;DHT22;52989;48.796;9.806;2023-03-04T07:37:31;0.20;99.90
66184;DHT22;52989;48.796;9.806;2023-03-04T07:39:57;0.90;99.90
66184;DHT22;52989;48.796;9.806;2023-03-04T07:42:22;0.80;99.90
66184;DHT22;52989;48.796;9.806;2023-03-04T07:44:50;0.60;99.90
66184;DHT22;52989;48.796;9.806;2023-03-04T07:47:16;0.50;99.90
66184;DHT22;52989;48.796;9.806;2023-03-04T07:49:41;1.00;99.90
66184;DHT22;52989;48.796;9.806;2023-03-04T07:52:07;1.20;99.90
66184;DHT22;52989;48.796;9.806;2023-03-04T07:54:33;1.10;99.90
66184;DHT22;52989;48.796;9.806;2023-03-04T07:57:00;1.00;99.90
66184;DHT22;52989;48.796;9.806;2023-03-04T07:59:26;0.70;99.90
66184;DHT22;52989;48.796;9.806;2023-03-04T08:01:51;0.90;99.90
66184;DHT22;52989;48.796;9.806;2023-03-04T08:04:17;0.80;99.90
66184;DHT22;52989;48.796;9.806;2023-03-04T08:06:42;1.00;99.90
66184;DHT22;52989;48.796;9.806;2023-03-04T08:09:09;0.40;99.90
66184;DHT22;52989;48.796;9.806;2023-03-04T08:11:35;0.40;99.90
66184;DHT22;52989;48.796;9.806;2023-03-04T08:14:01;0.70;99.90
66184;DHT22;52989;48.796;9.806;2023-03-04T08:16:27;0.70;99.90
66184;DHT22;52989;48.796;9.806;2023-03-04T08:18:54;0.80;99.90
66184;DHT22;52989;48.796;9.806;2023-03-04T08:21:21;0.70;99.90
66184;DHT22;52989;48.796;9.806;2023-03-04T08:23:47;0.90;99.90
66184;DHT22;52989;48.796;9.806;2023-03-04T08:26:14;0.40;99.90
66184;DHT22;52989;48.796;9.806;2023-03-04T08:28:40;0.80;99.90
66184;DHT22;52989;48.796;9.806;2023-03-04T08:31:06;0.70;99.90
66184;DHT22;52989;48.796;9.806;2023-03-04T08:33:32;1.00;99.90
66184;DHT22;52989;48.796;9.806;2023-03-04T08:35:58;1.20;99.90
66184;DHT22;52989;48.796;9.806;2023-03-04T08:38:23;1.40;99.90
66184;DHT22;52989;48.796;9.806;2023-03-04T08:40:53;1.30;99.90
66184;DHT22;52989;48.796;9.806;2023-03-04T08:43:18;1.00;99.90
66184;DHT22;52989;48.796;9.806;2023-03-04T08:45:44;0.60;99.90
66184;DHT22;52989;48.796;9.806;2023-03-04T08:48:10;0.80;99.90
66184;DHT22;52989;48.796;9.806;2023-03-04T08:50:35;1.20;99.90
66184;DHT22;52989;48.796;9.806;2023-03-04T08:53:01;1.20;99.90
66184;DHT22;52989;48.796;9.806;2023-03-04T08:55:26;1.50;99.90
66184;DHT22;52989;48.796;9.806;2023-03-04T08:57:52;1.40;99.90
66184;DHT22;52989;48.796;9.806;2023-03-04T09:00:17;1.10;99.90
66184;DHT22;52989;48.796;9.806;2023-03-04T09:02:43;1.20;99.90
66184;DHT22;52989;48.796;9.806;2023-03-04T09:05:08;1.20;99.90
66184;DHT22;52989;48.796;9.806;2023-03-04T09:07:34;0.70;99.90
66184;DHT22;52989;48.796;9.806;2023-03-04T09:09:59;1.40;99.90
66184;DHT22;52989;48.796;9.806;2023-03-04T09:12:26;1.70;99.90
66184;DHT22;52989;48.796;9.806;2023-03-04T09:14:52;1.70;99.90
66184;DHT22;52989;48.796;9.806;2023-03-04T09:17:17;1.50;99.90
66184;DHT22;52989;48.796;9.806;2023-03-04T09:19:43;1.40;99.90
66184;DHT22;52989;48.796;9.806;2023-03-04T09:22:08;1.90;99.90
66184;DHT22;52989;48.796;9.806;2023-03-04T09:24:34;1.80;99.90
66184;DHT22;52989;48.796;9.806;2023-03-04T09:26:59;2.10;99.90
66184;DHT22;52989;48.796;9.806;2023-03-04T09:29:24;1.20;99.90
66184;DHT22;52989;48.796;9.806;2023-03-04T09:31:50;0.90;99.90
66184;DHT22;52989;48.796;9.806;2023-03-04T09:34:15;0.60;99.90
66184;DHT22;52989;48.796;9.806;2023-03-04T09:36:41;0.70;99.90
66184;DHT22;52989;48.796;9.806;2023-03-04T09:39:06;1.00;99.90
66184;DHT22;52989;48.796;9.806;2023-03-04T09:41:36;0.90;99.90
66184;DHT22;52989;48.796;9.806;2023-03-04T09:44:04;0.90;99.90
66184;DHT22;52989;48.796;9.806;2023-03-04T09:46:33;0.80;99.90
66184;DHT22;52989;48.796;9.806;2023-03-04T09:48:59;1.00;99.90
66184;DHT22;52989;48.796;9.806;2023-03-04T09:56:36;1.70;99.90
66184;DHT22;52989;48.796;9.806;2023-03-04T09:59:15;1.10;99.90
66184;DHT22;52989;48.796;9.806;2023-03-04T10:01:44;0.80;99.90
66184;DHT22;52989;48.796;9.806;2023-03-04T10:04:13;0.80;99.90
66184;DHT22;52989;48.796;9.806;2023-03-04T10:06:39;0.90;99.90
66184;DHT22;52989;48.796;9.806;2023-03-04T10:09:10;0.90;99.90
66184;DHT22;52989;48.796;9.806;2023-03-04T10:11:44;1.60;99.90
66184;DHT22;52989;48.796;9.806;2023-03-04T10:16:48;1.80;99.90
66184;DHT22;52989;48.796;9.806;2023-03-04T10:20:03;1.80;99.90
66184;DHT22;52989;48.796;9.806;2023-03-04T10:22:01;2.10;99.90
66184;DHT22;52989;48.796;9.806;2023-03-04T10:24:39;1.60;99.90
66184;DHT22;52989;48.796;9.806;2023-03-04T10:27:05;1.10;99.90
66184;DHT22;52989;48.796;9.806;2023-03-04T10:29:31;1.20;99.90
66184;DHT22;52989;48.796;9.806;2023-03-04T10:31:57;1.90;99.90
66184;DHT22;52989;48.796;9.806;2023-03-04T10:34:23;1.40;99.90
66184;DHT22;52989;48.796;9.806;2023-03-04T10:36:52;1.10;99.90
66184;DHT22;52989;48.796;9.806;2023-03-04T10:39:25;1.60;99.90
66184;DHT22;52989;48.796;9.806;2023-03-04T10:41:56;1.30;99.90
66184;DHT22;52989;48.796;9.806;2023-03-04T10:44:22;1.70;99.90
66184;DHT22;52989;48.796;9.806;2023-03-04T10:46:48;1.50;99.90
66184;DHT22;52989;48.796;9.806;2023-03-04T10:49:15;1.50;99.90
66184;DHT22;52989;48.796;9.806;2023-03-04T10:51:42;1.30;99.90
66184;DHT22;52989;48.796;9.806;2023-03-04T10:54:53;1.80;99.90
66184;DHT22;52989;48.796;9.806;2023-03-04T10:57:01;1.60;99.90
66184;DHT22;52989;48.796;9.806;2023-03-04T11:01:53;2.20;99.90
66184;DHT22;52989;48.796;9.806;2023-03-04T11:04:19;2.70;99.90
66184;DHT22;52989;48.796;9.806;2023-03-04T11:06:44;2.50;99.90
66184;DHT22;52989;48.796;9.806;2023-03-04T11:09:20;2.40;99.90
66184;DHT22;52989;48.796;9.806;2023-03-04T11:11:46;2.30;99.90
66184;DHT22;52989;48.796;9.806;2023-03-04T11:14:24;2.50;99.90
66184;DHT22;52989;48.796;9.806;2023-03-04T11:16:55;1.60;99.90
66184;DHT22;52989;48.796;9.806;2023-03-04T11:19:21;2.00;99.90
66184;DHT22;52989;48.796;9.806;2023-03-04T11:21:47;1.70;99.90
66184;DHT22;52989;48.796;9.806;2023-03-04T11:24:14;1.70;99.90
66184;DHT22;52989;48.796;9.806;2023-03-04T11:26:50;1.80;99.90
66184;DHT22;52989;48.796;9.806;2023-03-04T11:29:23;1.70;99.90
66184;DHT22;52989;48.796;9.806;2023-03-04T11:37:23;2.30;99.90
66184;DHT22;52989;48.796;9.806;2023-03-04T11:39:54;1.90;99.90
66184;DHT22;52989;48.796;9.806;2023-03-04T11:44:55;1.80;99.90
66184;DHT22;52989;48.796;9.806;2023-03-04T11:49:50;2.60;99.90
66184;DHT22;52989;48.796;9.806;2023-03-04T12:08:57;2.60;98.70
66184;DHT22;52989;48.796;9.806;2023-03-04T12:19:24;2.80;97.40
66184;DHT22;52989;48.796;9.806;2023-03-04T12:26:54;3.30;96.30
66184;DHT22;52989;48.796;9.806;2023-03-04T12:29:27;2.50;95.60
66184;DHT22;52989;48.796;9.806;2023-03-04T12:32:38;2.80;97.30
66184;DHT22;52989;48.796;9.806;2023-03-04T12:37:29;2.80;96.00
66184;DHT22;52989;48.796;9.806;2023-03-04T12:42:49;3.30;94.80
66184;DHT22;52989;48.796;9.806;2023-03-04T12:45:24;3.70;93.80
66184;DHT22;52989;48.796;9.806;2023-03-04T12:50:36;2.90;94.00
66184;DHT22;52989;48.796;9.806;2023-03-04T12:55:41;3.40;92.10
66184;DHT22;52989;48.796;9.806;2023-03-04T13:03:34;3.00;92.70
66184;DHT22;52989;48.796;9.806;2023-03-04T13:11:00;2.90;91.70
66184;DHT22;52989;48.796;9.806;2023-03-04T13:16:01;3.50;91.40
66184;DHT22;52989;48.796;9.806;2023-03-04T13:18:31;3.50;91.00
66184;DHT22;52989;48.796;9.806;2023-03-04T13:21:31;4.10;91.10
66184;DHT22;52989;48.796;9.806;2023-03-04T13:23:50;3.80;90.00
66184;DHT22;52989;48.796;9.806;2023-03-04T13:28:45;3.70;90.40
66184;DHT22;52989;48.796;9.806;2023-03-04T13:31:17;3.40;89.90
66184;DHT22;52989;48.796;9.806;2023-03-04T13:33:44;3.50;90.00
66184;DHT22;52989;48.796;9.806;2023-03-04T13:36:29;3.70;90.40
66184;DHT22;52989;48.796;9.806;2023-03-04T13:46:52;3.30;90.40
66184;DHT22;52989;48.796;9.806;2023-03-04T13:49:20;3.20;90.50
66184;DHT22;52989;48.796;9.806;2023-03-04T13:51:46;3.30;90.40
66184;DHT22;52989;48.796;9.806;2023-03-04T13:56:38;3.30;90.50
66184;DHT22;52989;48.796;9.806;2023-03-04T14:01:36;3.40;90.90
66184;DHT22;52989;48.796;9.806;2023-03-04T14:06:49;3.20;91.10
66184;DHT22;52989;48.796;9.806;2023-03-04T14:09:19;3.10;90.60
66184;DHT22;52989;48.796;9.806;2023-03-04T14:11:45;3.00;90.90
66184;DHT22;52989;48.796;9.806;2023-03-04T14:14:12;3.00;90.80
66184;DHT22;52989;48.796;9.806;2023-03-04T14:16:39;2.80;91.00
66184;DHT22;52989;48.796;9.806;2023-03-04T14:19:14;2.80;91.30
66184;DHT22;52989;48.796;9.806;2023-03-04T14:21:43;2.70;91.30
66184;DHT22;52989;48.796;9.806;2023-03-04T14:24:12;2.90;91.80
66184;DHT22;52989;48.796;9.806;2023-03-04T14:26:37;2.90;91.20
66184;DHT22;52989;48.796;9.806;2023-03-04T14:29:23;2.80;91.20
66184;DHT22;52989;48.796;9.806;2023-03-04T14:31:48;3.00;91.50
66184;DHT22;52989;48.796;9.806;2023-03-04T14:34:48;3.20;91.20
66184;DHT22;52989;48.796;9.806;2023-03-04T14:37:19;3.00;91.20
66184;DHT22;52989;48.796;9.806;2023-03-04T14:39:45;3.00;91.50
66184;DHT22;52989;48.796;9.806;2023-03-04T14:42:12;3.60;92.00
66184;DHT22;52989;48.796;9.806;2023-03-04T14:44:42;3.60;91.00
66184;DHT22;52989;48.796;9.806;2023-03-04T14:47:13;3.40;90.40
66184;DHT22;52989;48.796;9.806;2023-03-04T14:49:41;3.20;90.50
66184;DHT22;52989;48.796;9.806;2023-03-04T14:52:24;3.10;90.90
66184;DHT22;52989;48.796;9.806;2023-03-04T14:55:01;3.30;91.10
66184;DHT22;52989;48.796;9.806;2023-03-04T14:57:28;3.10;90.80
66184;DHT22;52989;48.796;9.806;2023-03-04T14:59:56;2.90;91.20
66184;DHT22;52989;48.796;9.806;2023-03-04T15:02:38;2.90;91.40
66184;DHT22;52989;48.796;9.806;2023-03-04T15:05:08;2.80;91.40
66184;DHT22;52989;48.796;9.806;2023-03-04T15:07:34;2.70;91.20
66184;DHT22;52989;48.796;9.806;2023-03-04T15:10:01;2.90;91.60
66184;DHT22;52989;48.796;9.806;2023-03-04T15:12:28;2.70;91.70
66184;DHT22;52989;48.796;9.806;2023-03-04T15:14:55;2.60;91.80
66184;DHT22;52989;48.796;9.806;2023-03-04T15:17:36;2.70;92.40
66184;DHT22;52989;48.796;9.806;2023-03-04T15:22:31;3.00;92.00
66184;DHT22;52989;48.796;9.806;2023-03-04T15:24:56;2.90;91.90
66184;DHT22;52989;48.796;9.806;2023-03-04T15:27:22;3.30;92.40
66184;DHT22;52989;48.796;9.806;2023-03-04T15:38:10;3.10;91.60
66184;DHT22;52989;48.796;9.806;2023-03-04T15:40:40;3.30;91.50
66184;DHT22;52989;48.796;9.806;2023-03-04T15:43:16;3.30;91.20
66184;DHT22;52989;48.796;9.806;2023-03-04T15:45:42;3.10;91.60
66184;DHT22;52989;48.796;9.806;2023-03-04T16:20:10;2.60;91.20
66184;DHT22;52989;48.796;9.806;2023-03-04T16:22:38;2.60;91.50
66184;DHT22;52989;48.796;9.806;2023-03-04T16:25:04;2.60;91.40
66184;DHT22;52989;48.796;9.806;2023-03-04T16:27:29;2.60;91.40
66184;DHT22;52989;48.796;9.806;2023-03-04T16:29:55;2.50;91.80
66184;DHT22;52989;48.796;9.806;2023-03-04T16:32:20;2.60;91.50
66184;DHT22;52989;48.796;9.806;2023-03-04T16:34:46;2.70;91.60
66184;DHT22;52989;48.796;9.806;2023-03-04T16:37:15;2.70;91.30
66184;DHT22;52989;48.796;9.806;2023-03-04T16:39:42;2.60;91.10
66184;DHT22;52989;48.796;9.806;2023-03-04T16:42:16;2.70;91.60
66184;DHT22;52989;48.796;9.806;2023-03-04T16:44:43;2.60;91.00
66184;DHT22;52989;48.796;9.806;2023-03-04T16:47:09;2.70;90.90
66184;DHT22;52989;48.796;9.806;2023-03-04T16:49:34;2.70;90.90
66184;DHT22;52989;48.796;9.806;2023-03-04T16:52:00;2.70;90.90
66184;DHT22;52989;48.796;9.806;2023-03-04T16:54:26;2.70;91.30
66184;DHT22;52989;48.796;9.806;2023-03-04T16:56:52;2.60;90.90
66184;DHT22;52989;48.796;9.806;2023-03-04T16:59:17;2.60;91.00
66184;DHT22;52989;48.796;9.806;2023-03-04T17:01:43;2.80;91.30
66184;DHT22;52989;48.796;9.806;2023-03-04T17:04:08;2.50;90.80
66184;DHT22;52989;48.796;9.806;2023-03-04T17:06:34;2.60;91.20
66184;DHT22;52989;48.796;9.806;2023-03-04T17:09:03;2.70;90.70
66184;DHT22;52989;48.796;9.806;2023-03-04T17:11:28;2.70;91.20
66184;DHT22;52989;48.796;9.806;2023-03-04T17:13:54;2.80;91.00
66184;DHT22;52989;48.796;9.806;2023-03-04T17:16:20;2.80;91.00
66184;DHT22;52989;48.796;9.806;2023-03-04T17:18:45;2.80;90.50
66184;DHT22;52989;48.796;9.806;2023-03-04T17:21:12;2.80;90.80
66184;DHT22;52989;48.796;9.806;2023-03-04T17:23:37;2.60;91.40
66184;DHT22;52989;48.796;9.806;2023-03-04T17:26:03;3.00;91.70
66184;DHT22;52989;48.796;9.806;2023-03-04T17:28:29;2.60;91.10
66184;DHT22;52989;48.796;9.806;2023-03-04T17:30:55;2.50;92.10
66184;DHT22;52989;48.796;9.806;2023-03-04T17:33:21;2.30;91.50
66184;DHT22;52989;48.796;9.806;2023-03-04T17:35:46;2.50;92.00
66184;DHT22;52989;48.796;9.806;2023-03-04T17:38:12;2.20;91.80
66184;DHT22;52989;48.796;9.806;2023-03-04T17:40:38;2.70;92.00
66184;DHT22;52989;48.796;9.806;2023-03-04T17:43:03;2.80;91.60
66184;DHT22;52989;48.796;9.806;2023-03-04T17:45:39;3.20;90.90
66184;DHT22;52989;48.796;9.806;2023-03-04T17:48:05;3.10;90.60
66184;DHT22;52989;48.796;9.806;2023-03-04T17:50:30;2.50;91.90
66184;DHT22;52989;48.796;9.806;2023-03-04T17:52:56;2.50;91.40
66184;DHT22;52989;48.796;9.806;2023-03-04T17:55:21;2.60;92.30
66184;DHT22;52989;48.796;9.806;2023-03-04T17:57:47;2.30;91.60